sensor_id;sensor_type;location;lat;lon;timestamp;temperature;humidity
37998;DHT22;24079;51.824;4.682;2023-07-09T00:02:11;25.70;99.90
37998;DHT22;24079;51.824;4.682;2023-07-09T00:04:37;25.60;99.90
37998;DHT22;24079;51.824;4.682;2023-07-09T00:07:04;25.60;99.90
37998;DHT22;24079;51.824;4.682;2023-07-09T00:09:30;25.50;99.90
37998;DHT22;24079;51.824;4.682;2023-07-09T00:11:56;25.50;99.90
37998;DHT22;24079;51.824;4.682;2023-07-09T00:14:22;25.40;99.90
37998;DHT22;24079;51.824;4.682;2023-07-09T00:16:47;25.40;99.90
37998;DHT22;24079;51.824;4.682;2023-07-09T00:19:19;25.40;99.90
37998;DHT22;24079;51.824;4.682;2023-07-09T00:21:47;25.30;99.90
37998;DHT22;24079;51.824;4.682;2023-07-09T00:24:13;25.30;99.90
37998;DHT22;24079;51.824;4.682;2023-07-09T00:26:40;25.30;99.90
37998;DHT22;24079;51.824;4.682;2023-07-09T00:29:10;25.30;99.90
37998;DHT22;24079;51.824;4.682;2023-07-09T00:31:36;25.20;99.90
37998;DHT22;24079;51.824;4.682;2023-07-09T00:34:07;25.20;99.90
37998;DHT22;24079;51.824;4.682;2023-07-09T00:36:33;25.20;99.90
37998;DHT22;24079;51.824;4.682;2023-07-09T00:39:00;25.10;99.90
37998;DHT22;24079;51.824;4.682;2023-07-09T00:41:32;25.00;99.90
37998;DHT22;24079;51.824;4.682;2023-07-09T00:49:13;25.00;99.90
37998;DHT22;24079;51.824;4.682;2023-07-09T00:51:44;25.00;99.90
37998;DHT22;24079;51.824;4.682;2023-07-09T00:54:25;24.90;99.90
37998;DHT22;24079;51.824;4.682;2023-07-09T00:57:00;25.00;99.90
37998;DHT22;24079;51.824;4.682;2023-07-09T00:59:28;24.90;99.90
37998;DHT22;24079;51.824;4.682;2023-07-09T01:01:56;24.90;99.90
37998;DHT22;24079;51.824;4.682;2023-07-09T01:04:23;24.80;99.90
37998;DHT22;24079;51.824;4.682;2023-07-09T01:06:54;24.80;99.90
37998;DHT22;24079;51.824;4.682;2023-07-09T01:09:22;24.80;99.90
37998;DHT22;24079;51.824;4.682;2023-07-09T01:11:48;24.80;99.90
37998;DHT22;24079;51.824;4.682;2023-07-09T01:14:17;24.80;99.90
37998;DHT22;24079;51.824;4.682;2023-07-09T01:17:09;24.80;99.90
37998;DHT22;24079;51.824;4.682;2023-07-09T01:19:42;24.80;99.90
37998;DHT22;24079;51.824;4.682;2023-07-09T01:22:11;24.80;99.90
37998;DHT22;24079;51.824;4.682;2023-07-09T01:27:12;24.70;99.90
37998;DHT22;24079;51.824;4.682;2023-07-09T01:29:38;24.70;99.90
37998;DHT22;24079;51.824;4.682;2023-07-09T01:32:04;24.60;99.90
37998;DHT22;24079;51.824;4.682;2023-07-09T01:34:32;24.60;99.90
37998;DHT22;24079;51.824;4.682;2023-07-09T01:36:58;24.70;99.90
37998;DHT22;24079;51.824;4.682;2023-07-09T01:39:26;24.60;99.90
37998;DHT22;24079;51.824;4.682;2023-07-09T01:41:54;24.60;99.90
37998;DHT22;24079;51.824;4.682;2023-07-09T01:44:19;24.60;99.90
37998;DHT22;24079;51.824;4.682;2023-07-09T01:46:45;24.60;99.90
37998;DHT22;24079;51.824;4.682;2023-07-09T01:49:11;24.60;99.90
37998;DHT22;24079;51.824;4.682;2023-07-09T01:51:38;24.60;99.90
37998;DHT22;24079;51.824;4.682;2023-07-09T01:54:04;24.60;99.90
37998;DHT22;24079;51.824;4.682;2023-07-09T01:56:31;24.60;99.90
37998;DHT22;24079;51.824;4.682;2023-07-09T01:58:57;24.50;99.90
37998;DHT22;24079;51.824;4.682;2023-07-09T02:01:29;24.50;99.90
37998;DHT22;24079;51.824;4.682;2023-07-09T02:03:55;24.40;99.90
37998;DHT22;24079;51.824;4.682;2023-07-09T02:06:21;24.50;99.90
37998;DHT22;24079;51.824;4.682;2023-07-09T02:08:50;24.50;99.90
37998;DHT22;24079;51.824;4.682;2023-07-09T02:11:16;24.60;99.90
37998;DHT22;24079;51.824;4.682;2023-07-09T02:13:41;24.50;99.90
37998;DHT22;24079;51.824;4.682;2023-07-09T02:16:07;24.40;99.90
37998;DHT22;24079;51.824;4.682;2023-07-09T02:18:34;24.40;99.90
37998;DHT22;24079;51.824;4.682;2023-07-09T02:21:00;24.30;99.90
37998;DHT22;24079;51.824;4.682;2023-07-09T02:23:27;24.20;99.90
37998;DHT22;24079;51.824;4.682;2023-07-09T02:25:53;24.20;99.90
37998;DHT22;24079;51.824;4.682;2023-07-09T02:28:19;24.20;99.90
37998;DHT22;24079;51.824;4.682;2023-07-09T02:30:44;24.10;99.90
37998;DHT22;24079;51.824;4.682;2023-07-09T02:33:10;24.10;99.90
37998;DHT22;24079;51.824;4.682;2023-07-09T02:35:36;24.20;99.90
37998;DHT22;24079;51.824;4.682;2023-07-09T02:38:02;24.10;99.90
37998;DHT22;24079;51.824;4.682;2023-07-09T02:40:28;24.10;99.90
37998;DHT22;24079;51.824;4.682;2023-07-09T02:42:54;24.10;99.90
37998;DHT22;24079;51.824;4.682;2023-07-09T02:45:20;24.10;99.90
37998;DHT22;24079;51.824;4.682;2023-07-09T02:47:45;24.10;99.90
37998;DHT22;24079;51.824;4.682;2023-07-09T02:50:11;24.00;99.90
37998;DHT22;24079;51.824;4.682;2023-07-09T02:52:37;24.00;99.90
37998;DHT22;24079;51.824;4.682;2023-07-09T02:55:03;24.00;99.90
37998;DHT22;24079;51.824;4.682;2023-07-09T02:57:28;24.00;99.90
37998;DHT22;24079;51.824;4.682;2023-07-09T02:59:54;24.00;99.90
37998;DHT22;24079;51.824;4.682;2023-07-09T03:02:20;24.00;99.90
37998;DHT22;24079;51.824;4.682;2023-07-09T03:04:45;24.00;99.90
37998;DHT22;24079;51.824;4.682;2023-07-09T03:07:11;24.00;99.90
37998;DHT22;24079;51.824;4.682;2023-07-09T03:09:36;24.00;99.90
37998;DHT22;24079;51.824;4.682;2023-07-09T03:12:02;24.00;99.90
37998;DHT22;24079;51.824;4.682;2023-07-09T03:14:28;24.00;99.90
37998;DHT22;24079;51.824;4.682;2023-07-09T03:16:54;24.00;99.90
37998;DHT22;24079;51.824;4.682;2023-07-09T03:19:21;23.90;99.90
37998;DHT22;24079;51.824;4.682;2023-07-09T03:21:47;23.90;99.90
37998;DHT22;24079;51.824;4.682;2023-07-09T03:24:13;23.90;99.90
37998;DHT22;24079;51.824;4.682;2023-07-09T03:26:44;23.90;99.90
37998;DHT22;24079;51.824;4.682;2023-07-09T03:29:11;23.90;99.90
37998;DHT22;24079;51.824;4.682;2023-07-09T03:31:37;23.90;99.90
37998;DHT22;24079;51.824;4.682;2023-07-09T03:34:03;23.90;99.90
37998;DHT22;24079;51.824;4.682;2023-07-09T03:36:29;23.90;99.90
37998;DHT22;24079;51.824;4.682;2023-07-09T03:38:55;23.90;99.90
37998;DHT22;24079;51.824;4.682;2023-07-09T03:41:20;23.90;99.90
37998;DHT22;24079;51.824;4.682;2023-07-09T03:43:46;23.90;99.90
37998;DHT22;24079;51.824;4.682;2023-07-09T03:46:12;23.80;99.90
37998;DHT22;24079;51.824;4.682;2023-07-09T03:48:38;23.80;99.90
37998;DHT22;24079;51.824;4.682;2023-07-09T03:51:04;23.80;99.90
37998;DHT22;24079;51.824;4.682;2023-07-09T03:53:29;23.90;99.90
37998;DHT22;24079;51.824;4.682;2023-07-09T03:55:56;24.00;99.90
37998;DHT22;24079;51.824;4.682;2023-07-09T03:58:23;24.00;99.90
37998;DHT22;24079;51.824;4.682;2023-07-09T04:00:50;24.00;99.90
37998;DHT22;24079;51.824;4.682;2023-07-09T04:03:16;24.00;99.90
37998;DHT22;24079;51.824;4.682;2023-07-09T04:05:42;24.00;99.90
37998;DHT22;24079;51.824;4.682;2023-07-09T04:08:08;24.00;99.90
37998;DHT22;24079;51.824;4.682;2023-07-09T04:10:34;24.00;99.90
37998;DHT22;24079;51.824;4.682;2023-07-09T04:13:00;24.00;99.90
37998;DHT22;24079;51.824;4.682;2023-07-09T04:15:26;24.00;99.90
37998;DHT22;24079;51.824;4.682;2023-07-09T04:17:53;24.00;99.90
37998;DHT22;24079;51.824;4.682;2023-07-09T04:20:19;24.10;99.90
37998;DHT22;24079;51.824;4.682;2023-07-09T04:22:45;24.10;99.90
37998;DHT22;24079;51.824;4.682;2023-07-09T04:25:11;24.10;99.90
37998;DHT22;24079;51.824;4.682;2023-07-09T04:27:38;24.10;99.90
37998;DHT22;24079;51.824;4.682;2023-07-09T04:30:09;24.20;99.90
37998;DHT22;24079;51.824;4.682;2023-07-09T04:32:35;24.20;99.90
37998;DHT22;24079;51.824;4.682;2023-07-09T04:35:02;24.20;99.90
37998;DHT22;24079;51.824;4.682;2023-07-09T04:37:28;24.20;99.90
37998;DHT22;24079;51.824;4.682;2023-07-09T04:39:53;24.20;99.90
37998;DHT22;24079;51.824;4.682;2023-07-09T04:42:19;24.20;99.90
37998;DHT22;24079;51.824;4.682;2023-07-09T04:44:45;24.20;99.90
37998;DHT22;24079;51.824;4.682;2023-07-09T04:47:11;24.20;99.90
37998;DHT22;24079;51.824;4.682;2023-07-09T04:49:37;24.30;99.90
37998;DHT22;24079;51.824;4.682;2023-07-09T04:52:04;24.40;99.90
37998;DHT22;24079;51.824;4.682;2023-07-09T04:54:29;24.40;99.90
37998;DHT22;24079;51.824;4.682;2023-07-09T04:56:56;24.50;99.90
37998;DHT22;24079;51.824;4.682;2023-07-09T04:59:22;24.60;99.90
37998;DHT22;24079;51.824;4.682;2023-07-09T05:01:48;24.70;99.90
37998;DHT22;24079;51.824;4.682;2023-07-09T05:04:14;24.80;99.90
37998;DHT22;24079;51.824;4.682;2023-07-09T05:06:40;25.10;99.90
37998;DHT22;24079;51.824;4.682;2023-07-09T05:09:07;25.40;99.90
37998;DHT22;24079;51.824;4.682;2023-07-09T05:11:35;25.70;99.90
37998;DHT22;24079;51.824;4.682;2023-07-09T05:14:02;25.80;99.90
37998;DHT22;24079;51.824;4.682;2023-07-09T05:16:29;25.90;99.90
37998;DHT22;24079;51.824;4.682;2023-07-09T05:18:54;25.90;99.90
37998;DHT22;24079;51.824;4.682;2023-07-09T05:21:20;25.90;99.90
37998;DHT22;24079;51.824;4.682;2023-07-09T05:23:46;25.70;99.90
37998;DHT22;24079;51.824;4.682;2023-07-09T05:26:11;25.70;99.90
37998;DHT22;24079;51.824;4.682;2023-07-09T05:28:37;25.70;99.90
37998;DHT22;24079;51.824;4.682;2023-07-09T05:31:07;25.60;99.90
37998;DHT22;24079;51.824;4.682;2023-07-09T05:33:33;25.70;99.90
37998;DHT22;24079;51.824;4.682;2023-07-09T05:35:59;25.70;99.90
37998;DHT22;24079;51.824;4.682;2023-07-09T05:38:25;25.70;99.90
37998;DHT22;24079;51.824;4.682;2023-07-09T05:41:02;25.70;99.90
37998;DHT22;24079;51.824;4.682;2023-07-09T05:43:29;25.80;99.90
37998;DHT22;24079;51.824;4.682;2023-07-09T05:45:56;25.90;99.90
37998;DHT22;24079;51.824;4.682;2023-07-09T05:48:22;25.90;99.90
37998;DHT22;24079;51.824;4.682;2023-07-09T05:50:53;25.90;99.90
37998;DHT22;24079;51.824;4.682;2023-07-09T05:53:21;25.90;99.90
37998;DHT22;24079;51.824;4.682;2023-07-09T05:55:47;25.90;99.90
37998;DHT22;24079;51.824;4.682;2023-07-09T05:58:13;25.90;99.90
37998;DHT22;24079;51.824;4.682;2023-07-09T06:00:38;26.00;99.90
37998;DHT22;24079;51.824;4.682;2023-07-09T06:03:06;26.20;99.90
37998;DHT22;24079;51.824;4.682;2023-07-09T06:05:33;26.30;99.90
37998;DHT22;24079;51.824;4.682;2023-07-09T06:07:59;26.40;99.90
37998;DHT22;24079;51.824;4.682;2023-07-09T06:10:25;26.50;99.90
37998;DHT22;24079;51.824;4.682;2023-07-09T06:12:50;26.40;99.90
37998;DHT22;24079;51.824;4.682;2023-07-09T06:15:16;26.40;99.90
37998;DHT22;24079;51.824;4.682;2023-07-09T06:17:42;26.40;99.90
37998;DHT22;24079;51.824;4.682;2023-07-09T06:20:08;26.40;99.90
37998;DHT22;24079;51.824;4.682;2023-07-09T06:22:34;26.40;99.90
37998;DHT22;24079;51.824;4.682;2023-07-09T06:25:00;26.50;99.90
37998;DHT22;24079;51.824;4.682;2023-07-09T06:27:26;26.70;99.90
37998;DHT22;24079;51.824;4.682;2023-07-09T06:29:52;26.80;99.90
37998;DHT22;24079;51.824;4.682;2023-07-09T06:32:19;27.00;99.90
37998;DHT22;24079;51.824;4.682;2023-07-09T06:34:44;27.00;99.90
37998;DHT22;24079;51.824;4.682;2023-07-09T06:37:10;27.20;99.90
37998;DHT22;24079;51.824;4.682;2023-07-09T06:39:36;27.40;99.90
37998;DHT22;24079;51.824;4.682;2023-07-09T06:42:02;27.70;99.90
37998;DHT22;24079;51.824;4.682;2023-07-09T06:44:28;27.80;99.90
37998;DHT22;24079;51.824;4.682;2023-07-09T06:46:54;27.90;99.90
37998;DHT22;24079;51.824;4.682;2023-07-09T06:49:20;27.90;99.90
37998;DHT22;24079;51.824;4.682;2023-07-09T06:51:46;28.00;99.90
37998;DHT22;24079;51.824;4.682;2023-07-09T06:54:13;28.20;99.90
37998;DHT22;24079;51.824;4.682;2023-07-09T06:56:41;28.20;99.90
37998;DHT22;24079;51.824;4.682;2023-07-09T06:59:07;28.60;99.90
37998;DHT22;24079;51.824;4.682;2023-07-09T07:01:33;28.60;99.90
37998;DHT22;24079;51.824;4.682;2023-07-09T07:03:59;28.50;99.90
37998;DHT22;24079;51.824;4.682;2023-07-09T07:06:26;28.40;99.90
37998;DHT22;24079;51.824;4.682;2023-07-09T07:08:51;28.30;99.90
37998;DHT22;24079;51.824;4.682;2023-07-09T07:11:17;28.20;99.90
37998;DHT22;24079;51.824;4.682;2023-07-09T07:13:43;28.20;99.90
37998;DHT22;24079;51.824;4.682;2023-07-09T07:16:10;28.30;99.90
37998;DHT22;24079;51.824;4.682;2023-07-09T07:18:36;28.30;99.90
37998;DHT22;24079;51.824;4.682;2023-07-09T07:21:04;28.40;99.90
37998;DHT22;24079;51.824;4.682;2023-07-09T07:23:30;28.50;99.90
37998;DHT22;24079;51.824;4.682;2023-07-09T07:25:56;28.30;99.90
37998;DHT22;24079;51.824;4.682;2023-07-09T07:28:22;28.20;99.90
37998;DHT22;24079;51.824;4.682;2023-07-09T07:30:58;28.30;99.90
37998;DHT22;24079;51.824;4.682;2023-07-09T07:33:24;28.50;99.90
37998;DHT22;24079;51.824;4.682;2023-07-09T07:35:49;28.50;99.90
37998;DHT22;24079;51.824;4.682;2023-07-09T07:38:15;28.40;99.90
37998;DHT22;24079;51.824;4.682;2023-07-09T07:40:44;28.40;99.90
37998;DHT22;24079;51.824;4.682;2023-07-09T07:43:10;28.20;99.90
37998;DHT22;24079;51.824;4.682;2023-07-09T07:45:36;28.20;99.90
37998;DHT22;24079;51.824;4.682;2023-07-09T07:48:06;28.50;99.90
37998;DHT22;24079;51.824;4.682;2023-07-09T07:50:32;28.80;99.90
37998;DHT22;24079;51.824;4.682;2023-07-09T07:52:58;28.80;99.90
37998;DHT22;24079;51.824;4.682;2023-07-09T07:55:24;29.10;99.90
37998;DHT22;24079;51.824;4.682;2023-07-09T07:57:50;29.70;99.90
37998;DHT22;24079;51.824;4.682;2023-07-09T08:00:16;29.90;99.90
37998;DHT22;24079;51.824;4.682;2023-07-09T08:02:43;30.30;99.90
37998;DHT22;24079;51.824;4.682;2023-07-09T08:05:08;30.70;99.90
37998;DHT22;24079;51.824;4.682;2023-07-09T08:07:34;31.10;99.90
37998;DHT22;24079;51.824;4.682;2023-07-09T08:10:00;31.40;99.90
37998;DHT22;24079;51.824;4.682;2023-07-09T08:12:25;31.70;99.90
37998;DHT22;24079;51.824;4.682;2023-07-09T08:14:51;31.60;99.90
37998;DHT22;24079;51.824;4.682;2023-07-09T08:17:16;31.50;99.90
37998;DHT22;24079;51.824;4.682;2023-07-09T08:19:47;31.30;99.90
37998;DHT22;24079;51.824;4.682;2023-07-09T08:22:14;31.00;99.90
37998;DHT22;24079;51.824;4.682;2023-07-09T08:24:41;30.60;99.90
37998;DHT22;24079;51.824;4.682;2023-07-09T08:27:08;30.00;99.90
37998;DHT22;24079;51.824;4.682;2023-07-09T08:29:35;29.60;99.90
37998;DHT22;24079;51.824;4.682;2023-07-09T08:32:03;29.40;99.90
37998;DHT22;24079;51.824;4.682;2023-07-09T08:34:29;29.10;99.90
37998;DHT22;24079;51.824;4.682;2023-07-09T08:36:55;28.90;99.90
37998;DHT22;24079;51.824;4.682;2023-07-09T08:39:20;29.00;99.90
37998;DHT22;24079;51.824;4.682;2023-07-09T08:41:49;29.90;99.90
37998;DHT22;24079;51.824;4.682;2023-07-09T08:47:40;30.00;99.90
37998;DHT22;24079;51.824;4.682;2023-07-09T08:50:21;29.70;99.90
37998;DHT22;24079;51.824;4.682;2023-07-09T08:52:50;29.40;99.90
37998;DHT22;24079;51.824;4.682;2023-07-09T08:55:21;29.10;99.90
37998;DHT22;24079;51.824;4.682;2023-07-09T08:57:50;29.00;99.90
37998;DHT22;24079;51.824;4.682;2023-07-09T09:03:23;29.80;99.90
37998;DHT22;24079;51.824;4.682;2023-07-09T09:05:52;29.50;99.90
37998;DHT22;24079;51.824;4.682;2023-07-09T09:10:53;28.90;99.90
37998;DHT22;24079;51.824;4.682;2023-07-09T09:13:25;29.50;99.90
37998;DHT22;24079;51.824;4.682;2023-07-09T09:15:51;30.20;99.90
37998;DHT22;24079;51.824;4.682;2023-07-09T09:18:27;30.60;99.90
37998;DHT22;24079;51.824;4.682;2023-07-09T09:21:23;31.00;99.90
37998;DHT22;24079;51.824;4.682;2023-07-09T09:23:56;30.90;99.90
37998;DHT22;24079;51.824;4.682;2023-07-09T09:26:31;30.80;99.90
37998;DHT22;24079;51.824;4.682;2023-07-09T09:28:56;31.10;99.90
37998;DHT22;24079;51.824;4.682;2023-07-09T09:31:27;31.40;99.90
37998;DHT22;24079;51.824;4.682;2023-07-09T09:33:54;31.70;99.90
37998;DHT22;24079;51.824;4.682;2023-07-09T09:36:22;32.10;99.90
37998;DHT22;24079;51.824;4.682;2023-07-09T09:38:48;32.00;99.90
37998;DHT22;24079;51.824;4.682;2023-07-09T09:41:21;31.80;99.90
37998;DHT22;24079;51.824;4.682;2023-07-09T09:43:48;32.00;99.90
37998;DHT22;24079;51.824;4.682;2023-07-09T09:46:22;32.10;99.90
37998;DHT22;24079;51.824;4.682;2023-07-09T09:48:54;32.00;99.90
37998;DHT22;24079;51.824;4.682;2023-07-09T09:51:22;31.90;99.90
37998;DHT22;24079;51.824;4.682;2023-07-09T09:53:59;31.50;99.90
37998;DHT22;24079;51.824;4.682;2023-07-09T09:56:33;31.60;99.90
37998;DHT22;24079;51.824;4.682;2023-07-09T09:58:59;31.60;99.90
37998;DHT22;24079;51.824;4.682;2023-07-09T10:01:31;31.80;99.90
37998;DHT22;24079;51.824;4.682;2023-07-09T10:03:59;31.90;99.90
37998;DHT22;24079;51.824;4.682;2023-07-09T10:06:47;31.80;99.90
37998;DHT22;24079;51.824;4.682;2023-07-09T10:11:46;32.30;99.90
37998;DHT22;24079;51.824;4.682;2023-07-09T10:14:37;32.20;99.90
37998;DHT22;24079;51.824;4.682;2023-07-09T10:20:47;31.60;99.90
37998;DHT22;24079;51.824;4.682;2023-07-09T10:26:11;31.40;99.90
37998;DHT22;24079;51.824;4.682;2023-07-09T10:39:16;32.50;99.90
37998;DHT22;24079;51.824;4.682;2023-07-09T10:41:45;32.70;99.90
37998;DHT22;24079;51.824;4.682;2023-07-09T10:44:22;32.50;99.90
37998;DHT22;24079;51.824;4.682;2023-07-09T10:47:00;32.70;99.90
37998;DHT22;24079;51.824;4.682;2023-07-09T10:49:32;32.70;99.90
37998;DHT22;24079;51.824;4.682;2023-07-09T10:52:26;32.30;99.90
37998;DHT22;24079;51.824;4.682;2023-07-09T11:00:07;32.30;99.90
37998;DHT22;24079;51.824;4.682;2023-07-09T11:02:35;32.20;99.90
37998;DHT22;24079;51.824;4.682;2023-07-09T11:05:04;32.30;99.90
37998;DHT22;24079;51.824;4.682;2023-07-09T11:07:32;32.50;99.90
37998;DHT22;24079;51.824;4.682;2023-07-09T11:10:02;32.40;99.90
37998;DHT22;24079;51.824;4.682;2023-07-09T11:12:34;32.40;99.90
37998;DHT22;24079;51.824;4.682;2023-07-09T11:17:30;32.20;99.90
37998;DHT22;24079;51.824;4.682;2023-07-09T11:19:59;32.10;99.90
37998;DHT22;24079;51.824;4.682;2023-07-09T11:22:35;31.90;99.90
37998;DHT22;24079;51.824;4.682;2023-07-09T11:25:12;31.70;99.90
37998;DHT22;24079;51.824;4.682;2023-07-09T11:27:53;31.60;99.90
37998;DHT22;24079;51.824;4.682;2023-07-09T11:30:24;31.40;99.90
37998;DHT22;24079;51.824;4.682;2023-07-09T11:32:57;31.30;99.90
37998;DHT22;24079;51.824;4.682;2023-07-09T11:35:29;31.10;99.90
37998;DHT22;24079;51.824;4.682;2023-07-09T11:37:56;31.00;99.90
37998;DHT22;24079;51.824;4.682;2023-07-09T11:40:24;30.90;99.90
37998;DHT22;24079;51.824;4.682;2023-07-09T11:42:55;31.00;99.90
37998;DHT22;24079;51.824;4.682;2023-07-09T11:45:28;30.80;99.90
37998;DHT22;24079;51.824;4.682;2023-07-09T11:50:49;30.70;99.90
37998;DHT22;24079;51.824;4.682;2023-07-09T11:53:35;31.00;99.90
37998;DHT22;24079;51.824;4.682;2023-07-09T11:56:03;31.00;99.90
37998;DHT22;24079;51.824;4.682;2023-07-09T11:58:30;30.70;99.90
37998;DHT22;24079;51.824;4.682;2023-07-09T12:00:57;30.70;99.90
37998;DHT22;24079;51.824;4.682;2023-07-09T12:03:34;30.70;99.90
37998;DHT22;24079;51.824;4.682;2023-07-09T12:06:04;30.70;99.90
37998;DHT22;24079;51.824;4.682;2023-07-09T12:08:36;31.10;99.90
37998;DHT22;24079;51.824;4.682;2023-07-09T12:11:04;31.30;99.90
37998;DHT22;24079;51.824;4.682;2023-07-09T12:13:37;31.20;99.90
37998;DHT22;24079;51.824;4.682;2023-07-09T12:16:04;31.00;99.90
37998;DHT22;24079;51.824;4.682;2023-07-09T12:18:30;31.40;99.90
37998;DHT22;24079;51.824;4.682;2023-07-09T12:20:56;31.50;99.90
37998;DHT22;24079;51.824;4.682;2023-07-09T12:25:53;31.20;99.90
37998;DHT22;24079;51.824;4.682;2023-07-09T12:28:21;31.00;99.90
37998;DHT22;24079;51.824;4.682;2023-07-09T12:30:50;31.10;99.90
37998;DHT22;24079;51.824;4.682;2023-07-09T12:33:21;31.20;99.90
37998;DHT22;24079;51.824;4.682;2023-07-09T12:35:48;31.10;99.90
37998;DHT22;24079;51.824;4.682;2023-07-09T12:38:21;30.50;99.90
37998;DHT22;24079;51.824;4.682;2023-07-09T12:40:51;30.20;99.90
37998;DHT22;24079;51.824;4.682;2023-07-09T12:43:28;29.90;99.90
37998;DHT22;24079;51.824;4.682;2023-07-09T12:45:58;29.70;99.90
37998;DHT22;24079;51.824;4.682;2023-07-09T12:48:28;29.50;99.90
37998;DHT22;24079;51.824;4.682;2023-07-09T12:50:59;29.40;99.90
37998;DHT22;24079;51.824;4.682;2023-07-09T12:53:27;28.70;99.90
37998;DHT22;24079;51.824;4.682;2023-07-09T12:55:58;28.30;99.90
37998;DHT22;24079;51.824;4.682;2023-07-09T12:58:37;28.40;99.90
37998;DHT22;24079;51.824;4.682;2023-07-09T13:01:15;28.40;99.90
37998;DHT22;24079;51.824;4.682;2023-07-09T13:03:41;28.40;99.90
37998;DHT22;24079;51.824;4.682;2023-07-09T13:06:30;28.50;99.90
37998;DHT22;24079;51.824;4.682;2023-07-09T13:09:00;28.70;99.90
37998;DHT22;24079;51.824;4.682;2023-07-09T13:11:34;28.50;99.90
37998;DHT22;24079;51.824;4.682;2023-07-09T13:14:04;28.20;99.90
37998;DHT22;24079;51.824;4.682;2023-07-09T13:16:30;28.20;99.90
37998;DHT22;24079;51.824;4.682;2023-07-09T13:18:56;28.30;99.90
37998;DHT22;24079;51.824;4.682;2023-07-09T13:21:22;28.00;99.90
37998;DHT22;24079;51.824;4.682;2023-07-09T13:23:48;27.80;99.90
37998;DHT22;24079;51.824;4.682;2023-07-09T13:26:15;27.60;99.90
37998;DHT22;24079;51.824;4.682;2023-07-09T13:28:42;27.40;99.90
37998;DHT22;24079;51.824;4.682;2023-07-09T13:31:15;27.20;99.90
37998;DHT22;24079;51.824;4.682;2023-07-09T13:33:52;27.10;99.90
37998;DHT22;24079;51.824;4.682;2023-07-09T13:36:19;27.00;99.90
37998;DHT22;24079;51.824;4.682;2023-07-09T13:38:45;26.80;99.90
37998;DHT22;24079;51.824;4.682;2023-07-09T13:41:13;26.50;99.90
37998;DHT22;24079;51.824;4.682;2023-07-09T13:43:43;26.40;99.90
37998;DHT22;24079;51.824;4.682;2023-07-09T13:46:09;26.30;99.90
37998;DHT22;24079;51.824;4.682;2023-07-09T13:48:38;26.20;99.90
37998;DHT22;24079;51.824;4.682;2023-07-09T13:51:18;26.20;99.90
37998;DHT22;24079;51.824;4.682;2023-07-09T13:53:45;26.10;99.90
37998;DHT22;24079;51.824;4.682;2023-07-09T13:56:11;25.90;99.90
37998;DHT22;24079;51.824;4.682;2023-07-09T13:58:37;25.70;99.90
37998;DHT22;24079;51.824;4.682;2023-07-09T14:01:20;25.70;99.90
37998;DHT22;24079;51.824;4.682;2023-07-09T14:03:46;25.60;99.90
37998;DHT22;24079;51.824;4.682;2023-07-09T14:06:14;25.60;99.90
37998;DHT22;24079;51.824;4.682;2023-07-09T14:08:40;25.60;99.90
37998;DHT22;24079;51.824;4.682;2023-07-09T14:11:15;25.40;99.90
37998;DHT22;24079;51.824;4.682;2023-07-09T14:13:42;25.10;99.90
37998;DHT22;24079;51.824;4.682;2023-07-09T14:16:12;24.60;99.90
37998;DHT22;24079;51.824;4.682;2023-07-09T14:18:39;24.20;99.90
37998;DHT22;24079;51.824;4.682;2023-07-09T14:21:19;23.70;99.90
37998;DHT22;24079;51.824;4.682;2023-07-09T14:23:46;23.20;99.90
37998;DHT22;24079;51.824;4.682;2023-07-09T14:26:12;22.90;99.90
37998;DHT22;24079;51.824;4.682;2023-07-09T14:28:39;22.60;99.90
37998;DHT22;24079;51.824;4.682;2023-07-09T14:31:23;22.70;99.90
37998;DHT22;24079;51.824;4.682;2023-07-09T14:33:50;22.90;99.90
37998;DHT22;24079;51.824;4.682;2023-07-09T14:36:16;23.10;99.90
37998;DHT22;24079;51.824;4.682;2023-07-09T14:38:42;23.60;99.90
37998;DHT22;24079;51.824;4.682;2023-07-09T14:41:26;23.90;99.90
37998;DHT22;24079;51.824;4.682;2023-07-09T14:43:58;23.80;99.90
37998;DHT22;24079;51.824;4.682;2023-07-09T14:46:24;23.70;99.90
37998;DHT22;24079;51.824;4.682;2023-07-09T14:48:50;23.80;99.90
37998;DHT22;24079;51.824;4.682;2023-07-09T14:51:16;23.90;99.90
37998;DHT22;24079;51.824;4.682;2023-07-09T14:53:44;24.10;99.90
37998;DHT22;24079;51.824;4.682;2023-07-09T14:56:13;24.20;99.90
37998;DHT22;24079;51.824;4.682;2023-07-09T14:58:39;24.30;99.90
37998;DHT22;24079;51.824;4.682;2023-07-09T15:01:14;24.40;99.90
37998;DHT22;24079;51.824;4.682;2023-07-09T15:03:40;24.40;99.90
37998;DHT22;24079;51.824;4.682;2023-07-09T15:06:06;24.40;99.90
37998;DHT22;24079;51.824;4.682;2023-07-09T15:08:32;24.20;99.90
37998;DHT22;24079;51.824;4.682;2023-07-09T15:10:59;24.20;99.90
37998;DHT22;24079;51.824;4.682;2023-07-09T15:13:32;24.20;99.90
37998;DHT22;24079;51.824;4.682;2023-07-09T15:16:00;24.30;99.90
37998;DHT22;24079;51.824;4.682;2023-07-09T15:18:26;24.40;99.90
37998;DHT22;24079;51.824;4.682;2023-07-09T15:21:01;24.60;99.90
37998;DHT22;24079;51.824;4.682;2023-07-09T15:23:28;24.50;99.90
37998;DHT22;24079;51.824;4.682;2023-07-09T15:25:56;24.60;99.90
37998;DHT22;24079;51.824;4.682;2023-07-09T15:28:22;24.60;99.90
37998;DHT22;24079;51.824;4.682;2023-07-09T15:30:48;24.60;99.90
37998;DHT22;24079;51.824;4.682;2023-07-09T15:33:16;24.60;99.90
37998;DHT22;24079;51.824;4.682;2023-07-09T15:35:43;24.60;99.90
37998;DHT22;24079;51.824;4.682;2023-07-09T15:40:46;24.70;99.90
37998;DHT22;24079;51.824;4.682;2023-07-09T15:43:31;24.80;99.90
37998;DHT22;24079;51.824;4.682;2023-07-09T15:45:58;24.80;99.90
37998;DHT22;24079;51.824;4.682;2023-07-09T15:50:52;24.80;99.90
37998;DHT22;24079;51.824;4.682;2023-07-09T15:53:19;24.80;99.90
37998;DHT22;24079;51.824;4.682;2023-07-09T15:55:46;24.70;99.90
37998;DHT22;24079;51.824;4.682;2023-07-09T15:58:18;24.80;99.90
37998;DHT22;24079;51.824;4.682;2023-07-09T16:00:45;24.70;99.90
37998;DHT22;24079;51.824;4.682;2023-07-09T16:03:11;24.40;99.90
37998;DHT22;24079;51.824;4.682;2023-07-09T16:05:37;24.40;99.90
37998;DHT22;24079;51.824;4.682;2023-07-09T16:08:04;24.50;99.90
37998;DHT22;24079;51.824;4.682;2023-07-09T16:10:31;24.70;99.90
37998;DHT22;24079;51.824;4.682;2023-07-09T16:12:57;24.60;99.90
37998;DHT22;24079;51.824;4.682;2023-07-09T16:15:24;24.50;99.90
37998;DHT22;24079;51.824;4.682;2023-07-09T16:17:51;24.60;99.90
37998;DHT22;24079;51.824;4.682;2023-07-09T16:20:22;24.60;99.90
37998;DHT22;24079;51.824;4.682;2023-07-09T16:22:53;24.60;99.90
37998;DHT22;24079;51.824;4.682;2023-07-09T16:25:22;24.60;99.90
37998;DHT22;24079;51.824;4.682;2023-07-09T16:27:50;24.50;99.90
37998;DHT22;24079;51.824;4.682;2023-07-09T16:30:22;24.50;99.90
37998;DHT22;24079;51.824;4.682;2023-07-09T16:32:50;24.50;99.90